sensor_id;sensor_type;location;lat;lon;timestamp;P1;durP1;ratioP1;P2;durP2;ratioP2
60819;SDS011;46641;48.904;9.126;2022-12-08T00:01:44;7.03;;;6.27;;
60819;SDS011;46641;48.904;9.126;2022-12-08T00:11:52;7.10;;;6.30;;
60819;SDS011;46641;48.904;9.126;2022-12-08T00:16:53;7.03;;;5.97;;
60819;SDS011;46641;48.904;9.126;2022-12-08T00:21:44;6.00;;;5.30;;
60819;SDS011;46641;48.904;9.126;2022-12-08T00:26:35;7.13;;;5.87;;
60819;SDS011;46641;48.904;9.126;2022-12-08T00:31:26;7.87;;;6.17;;
60819;SDS011;46641;48.904;9.126;2022-12-08T00:36:16;7.17;;;6.03;;
60819;SDS011;46641;48.904;9.126;2022-12-08T00:41:08;6.93;;;5.87;;
60819;SDS011;46641;48.904;9.126;2022-12-08T00:46:02;7.27;;;5.83;;
60819;SDS011;46641;48.904;9.126;2022-12-08T00:50:52;7.60;;;6.27;;
60819;SDS011;46641;48.904;9.126;2022-12-08T00:55:43;7.45;;;6.07;;
60819;SDS011;46641;48.904;9.126;2022-12-08T01:00:33;6.53;;;5.50;;
60819;SDS011;46641;48.904;9.126;2022-12-08T01:05:23;8.00;;;6.57;;
60819;SDS011;46641;48.904;9.126;2022-12-08T01:10:14;7.13;;;6.43;;
60819;SDS011;46641;48.904;9.126;2022-12-08T01:15:05;8.37;;;6.07;;
60819;SDS011;46641;48.904;9.126;2022-12-08T01:19:55;6.97;;;6.20;;
60819;SDS011;46641;48.904;9.126;2022-12-08T01:24:46;6.27;;;5.67;;
60819;SDS011;46641;48.904;9.126;2022-12-08T01:29:36;7.85;;;5.80;;
60819;SDS011;46641;48.904;9.126;2022-12-08T01:34:26;6.20;;;4.73;;
60819;SDS011;46641;48.904;9.126;2022-12-08T01:39:17;5.80;;;5.00;;
60819;SDS011;46641;48.904;9.126;2022-12-08T01:49:07;5.70;;;5.10;;
60819;SDS011;46641;48.904;9.126;2022-12-08T01:54:01;6.90;;;5.60;;
60819;SDS011;46641;48.904;9.126;2022-12-08T01:58:53;6.37;;;5.37;;
60819;SDS011;46641;48.904;9.126;2022-12-08T02:03:46;5.97;;;5.10;;
60819;SDS011;46641;48.904;9.126;2022-12-08T02:08:40;7.57;;;5.53;;
60819;SDS011;46641;48.904;9.126;2022-12-08T02:13:31;7.10;;;4.70;;
60819;SDS011;46641;48.904;9.126;2022-12-08T02:18:26;6.50;;;5.53;;
60819;SDS011;46641;48.904;9.126;2022-12-08T02:43:43;7.10;;;5.43;;
60819;SDS011;46641;48.904;9.126;2022-12-08T02:48:36;6.33;;;5.73;;
60819;SDS011;46641;48.904;9.126;2022-12-08T02:53:28;7.47;;;5.43;;
60819;SDS011;46641;48.904;9.126;2022-12-08T03:13:59;5.87;;;5.10;;
60819;SDS011;46641;48.904;9.126;2022-12-08T03:18:52;6.87;;;5.70;;
60819;SDS011;46641;48.904;9.126;2022-12-08T03:23:50;6.87;;;5.53;;
60819;SDS011;46641;48.904;9.126;2022-12-08T03:28:44;6.23;;;5.20;;
60819;SDS011;46641;48.904;9.126;2022-12-08T03:33:36;6.90;;;5.63;;
60819;SDS011;46641;48.904;9.126;2022-12-08T03:38:39;6.60;;;5.60;;
60819;SDS011;46641;48.904;9.126;2022-12-08T03:43:31;5.80;;;5.20;;
60819;SDS011;46641;48.904;9.126;2022-12-08T03:48:22;5.85;;;5.25;;
60819;SDS011;46641;48.904;9.126;2022-12-08T03:53:12;6.40;;;5.18;;
60819;SDS011;46641;48.904;9.126;2022-12-08T03:58:02;8.40;;;6.23;;
60819;SDS011;46641;48.904;9.126;2022-12-08T04:02:52;6.68;;;5.18;;
60819;SDS011;46641;48.904;9.126;2022-12-08T04:07:43;7.57;;;6.00;;
60819;SDS011;46641;48.904;9.126;2022-12-08T04:12:33;9.00;;;6.22;;
60819;SDS011;46641;48.904;9.126;2022-12-08T04:17:23;10.95;;;5.80;;
60819;SDS011;46641;48.904;9.126;2022-12-08T04:22:13;7.93;;;5.85;;
60819;SDS011;46641;48.904;9.126;2022-12-08T04:27:04;7.82;;;6.15;;
60819;SDS011;46641;48.904;9.126;2022-12-08T04:31:54;6.63;;;5.67;;
60819;SDS011;46641;48.904;9.126;2022-12-08T04:36:44;6.57;;;5.88;;
60819;SDS011;46641;48.904;9.126;2022-12-08T04:41:35;7.80;;;5.53;;
60819;SDS011;46641;48.904;9.126;2022-12-08T04:46:25;6.43;;;4.87;;
60819;SDS011;46641;48.904;9.126;2022-12-08T04:51:16;7.65;;;5.63;;
60819;SDS011;46641;48.904;9.126;2022-12-08T04:56:14;8.13;;;5.67;;
60819;SDS011;46641;48.904;9.126;2022-12-08T05:01:07;6.57;;;5.90;;
60819;SDS011;46641;48.904;9.126;2022-12-08T05:06:00;6.15;;;5.57;;
60819;SDS011;46641;48.904;9.126;2022-12-08T05:10:51;5.57;;;5.07;;
60819;SDS011;46641;48.904;9.126;2022-12-08T05:15:41;5.95;;;5.10;;
60819;SDS011;46641;48.904;9.126;2022-12-08T05:20:32;6.33;;;5.57;;
60819;SDS011;46641;48.904;9.126;2022-12-08T05:25:22;5.80;;;5.20;;
60819;SDS011;46641;48.904;9.126;2022-12-08T05:30:13;7.90;;;5.20;;
60819;SDS011;46641;48.904;9.126;2022-12-08T05:35:03;5.73;;;5.10;;
60819;SDS011;46641;48.904;9.126;2022-12-08T05:39:54;5.60;;;5.00;;
60819;SDS011;46641;48.904;9.126;2022-12-08T05:44:44;7.30;;;5.03;;
60819;SDS011;46641;48.904;9.126;2022-12-08T05:49:35;5.47;;;4.90;;
60819;SDS011;46641;48.904;9.126;2022-12-08T05:54:25;5.90;;;4.97;;
60819;SDS011;46641;48.904;9.126;2022-12-08T05:59:15;6.45;;;5.78;;
60819;SDS011;46641;48.904;9.126;2022-12-08T06:04:06;8.75;;;5.88;;
60819;SDS011;46641;48.904;9.126;2022-12-08T06:08:56;6.40;;;4.97;;
60819;SDS011;46641;48.904;9.126;2022-12-08T06:13:47;7.27;;;5.27;;
60819;SDS011;46641;48.904;9.126;2022-12-08T06:18:38;8.37;;;6.53;;
60819;SDS011;46641;48.904;9.126;2022-12-08T06:23:28;8.07;;;6.80;;
60819;SDS011;46641;48.904;9.126;2022-12-08T06:28:18;7.23;;;6.50;;
60819;SDS011;46641;48.904;9.126;2022-12-08T06:33:09;6.63;;;5.87;;
60819;SDS011;46641;48.904;9.126;2022-12-08T06:37:59;8.27;;;6.50;;
60819;SDS011;46641;48.904;9.126;2022-12-08T06:42:49;7.00;;;6.10;;
60819;SDS011;46641;48.904;9.126;2022-12-08T06:47:40;7.88;;;6.40;;
60819;SDS011;46641;48.904;9.126;2022-12-08T06:52:31;8.10;;;6.93;;
60819;SDS011;46641;48.904;9.126;2022-12-08T06:57:21;6.60;;;5.90;;
60819;SDS011;46641;48.904;9.126;2022-12-08T07:02:13;7.63;;;6.60;;
60819;SDS011;46641;48.904;9.126;2022-12-08T07:07:03;6.93;;;6.30;;
60819;SDS011;46641;48.904;9.126;2022-12-08T07:11:53;6.88;;;6.18;;
60819;SDS011;46641;48.904;9.126;2022-12-08T07:16:44;6.77;;;5.20;;
60819;SDS011;46641;48.904;9.126;2022-12-08T07:21:34;11.25;;;9.05;;
60819;SDS011;46641;48.904;9.126;2022-12-08T07:26:24;10.60;;;8.83;;
60819;SDS011;46641;48.904;9.126;2022-12-08T07:31:20;7.83;;;7.03;;
60819;SDS011;46641;48.904;9.126;2022-12-08T07:36:12;8.13;;;6.23;;
60819;SDS011;46641;48.904;9.126;2022-12-08T07:41:02;6.97;;;6.20;;
60819;SDS011;46641;48.904;9.126;2022-12-08T07:45:53;6.77;;;6.03;;
60819;SDS011;46641;48.904;9.126;2022-12-08T07:50:43;8.15;;;6.22;;
60819;SDS011;46641;48.904;9.126;2022-12-08T07:55:33;8.97;;;6.57;;
60819;SDS011;46641;48.904;9.126;2022-12-08T08:00:27;7.20;;;6.43;;
60819;SDS011;46641;48.904;9.126;2022-12-08T08:05:18;7.07;;;6.10;;
60819;SDS011;46641;48.904;9.126;2022-12-08T08:10:10;8.93;;;7.20;;
60819;SDS011;46641;48.904;9.126;2022-12-08T08:15:00;6.33;;;5.73;;
60819;SDS011;46641;48.904;9.126;2022-12-08T08:19:51;10.07;;;8.60;;
60819;SDS011;46641;48.904;9.126;2022-12-08T08:24:42;7.80;;;6.75;;
60819;SDS011;46641;48.904;9.126;2022-12-08T08:29:32;9.73;;;6.90;;
60819;SDS011;46641;48.904;9.126;2022-12-08T08:34:22;8.60;;;6.57;;
60819;SDS011;46641;48.904;9.126;2022-12-08T08:39:13;8.33;;;6.73;;
60819;SDS011;46641;48.904;9.126;2022-12-08T08:44:03;9.37;;;6.90;;
60819;SDS011;46641;48.904;9.126;2022-12-08T08:48:54;9.43;;;7.17;;
60819;SDS011;46641;48.904;9.126;2022-12-08T08:53:44;12.40;;;8.43;;
60819;SDS011;46641;48.904;9.126;2022-12-08T08:58:34;10.20;;;9.07;;
60819;SDS011;46641;48.904;9.126;2022-12-08T09:03:25;10.60;;;8.17;;
60819;SDS011;46641;48.904;9.126;2022-12-08T09:08:15;15.13;;;10.47;;
60819;SDS011;46641;48.904;9.126;2022-12-08T09:13:05;9.70;;;7.60;;
60819;SDS011;46641;48.904;9.126;2022-12-08T09:17:56;7.60;;;6.65;;
60819;SDS011;46641;48.904;9.126;2022-12-08T09:22:46;6.83;;;6.03;;
60819;SDS011;46641;48.904;9.126;2022-12-08T09:27:37;8.13;;;6.47;;
60819;SDS011;46641;48.904;9.126;2022-12-08T09:32:27;9.87;;;6.73;;
60819;SDS011;46641;48.904;9.126;2022-12-08T09:37:17;8.77;;;7.20;;
60819;SDS011;46641;48.904;9.126;2022-12-08T09:42:08;7.97;;;6.70;;
60819;SDS011;46641;48.904;9.126;2022-12-08T09:46:59;10.30;;;6.77;;
60819;SDS011;46641;48.904;9.126;2022-12-08T09:51:52;10.57;;;9.47;;
60819;SDS011;46641;48.904;9.126;2022-12-08T09:56:43;8.70;;;6.33;;
60819;SDS011;46641;48.904;9.126;2022-12-08T10:01:34;7.63;;;6.40;;
60819;SDS011;46641;48.904;9.126;2022-12-08T10:06:40;8.33;;;7.13;;
60819;SDS011;46641;48.904;9.126;2022-12-08T10:11:50;9.33;;;7.33;;
60819;SDS011;46641;48.904;9.126;2022-12-08T10:16:48;7.67;;;6.30;;
60819;SDS011;46641;48.904;9.126;2022-12-08T10:21:41;7.90;;;6.50;;
60819;SDS011;46641;48.904;9.126;2022-12-08T10:26:31;7.70;;;6.70;;
60819;SDS011;46641;48.904;9.126;2022-12-08T10:31:22;7.37;;;6.07;;
60819;SDS011;46641;48.904;9.126;2022-12-08T10:36:13;7.47;;;6.73;;
60819;SDS011;46641;48.904;9.126;2022-12-08T10:51:23;10.07;;;7.50;;
60819;SDS011;46641;48.904;9.126;2022-12-08T10:56:23;8.07;;;7.13;;
60819;SDS011;46641;48.904;9.126;2022-12-08T11:01:19;8.90;;;6.83;;
60819;SDS011;46641;48.904;9.126;2022-12-08T11:06:32;8.90;;;7.20;;
60819;SDS011;46641;48.904;9.126;2022-12-08T11:16:34;9.07;;;7.40;;
60819;SDS011;46641;48.904;9.126;2022-12-08T11:21:36;15.60;;;11.67;;
60819;SDS011;46641;48.904;9.126;2022-12-08T11:26:29;7.37;;;6.67;;
60819;SDS011;46641;48.904;9.126;2022-12-08T11:36:28;7.63;;;6.03;;
60819;SDS011;46641;48.904;9.126;2022-12-08T11:41:26;7.90;;;6.00;;
60819;SDS011;46641;48.904;9.126;2022-12-08T11:57:13;16.43;;;12.10;;
60819;SDS011;46641;48.904;9.126;2022-12-08T12:02:10;8.27;;;5.77;;
60819;SDS011;46641;48.904;9.126;2022-12-08T12:22:32;7.33;;;5.50;;
60819;SDS011;46641;48.904;9.126;2022-12-08T12:27:42;6.03;;;5.17;;
60819;SDS011;46641;48.904;9.126;2022-12-08T12:32:44;8.13;;;7.10;;
60819;SDS011;46641;48.904;9.126;2022-12-08T12:37:41;5.93;;;4.83;;
60819;SDS011;46641;48.904;9.126;2022-12-08T12:52:39;7.30;;;5.47;;
60819;SDS011;46641;48.904;9.126;2022-12-08T12:57:36;6.20;;;4.80;;
60819;SDS011;46641;48.904;9.126;2022-12-08T13:07:32;6.53;;;4.97;;
60819;SDS011;46641;48.904;9.126;2022-12-08T13:12:24;6.70;;;5.40;;
60819;SDS011;46641;48.904;9.126;2022-12-08T13:23:12;6.70;;;5.63;;
60819;SDS011;46641;48.904;9.126;2022-12-08T13:33:06;5.77;;;5.17;;
60819;SDS011;46641;48.904;9.126;2022-12-08T13:38:02;6.40;;;5.37;;
60819;SDS011;46641;48.904;9.126;2022-12-08T13:53:01;5.57;;;4.93;;
60819;SDS011;46641;48.904;9.126;2022-12-08T13:57:54;6.27;;;5.67;;
60819;SDS011;46641;48.904;9.126;2022-12-08T14:02:46;6.27;;;5.00;;
60819;SDS011;46641;48.904;9.126;2022-12-08T14:07:38;6.37;;;5.50;;
60819;SDS011;46641;48.904;9.126;2022-12-08T14:12:30;11.02;;;9.88;;
60819;SDS011;46641;48.904;9.126;2022-12-08T14:17:21;9.77;;;7.43;;
60819;SDS011;46641;48.904;9.126;2022-12-08T14:22:12;8.67;;;6.57;;
60819;SDS011;46641;48.904;9.126;2022-12-08T14:27:06;8.63;;;6.20;;
60819;SDS011;46641;48.904;9.126;2022-12-08T14:31:59;13.27;;;9.67;;
60819;SDS011;46641;48.904;9.126;2022-12-08T14:36:49;16.75;;;11.63;;
60819;SDS011;46641;48.904;9.126;2022-12-08T14:41:46;10.40;;;7.47;;
60819;SDS011;46641;48.904;9.126;2022-12-08T14:47:03;19.03;;;12.57;;
60819;SDS011;46641;48.904;9.126;2022-12-08T14:51:59;9.70;;;7.30;;
60819;SDS011;46641;48.904;9.126;2022-12-08T14:56:51;7.83;;;6.17;;
60819;SDS011;46641;48.904;9.126;2022-12-08T15:01:44;7.30;;;6.20;;
60819;SDS011;46641;48.904;9.126;2022-12-08T15:06:37;7.70;;;6.47;;
60819;SDS011;46641;48.904;9.126;2022-12-08T15:11:42;11.35;;;8.90;;
60819;SDS011;46641;48.904;9.126;2022-12-08T15:21:23;8.80;;;6.27;;
60819;SDS011;46641;48.904;9.126;2022-12-08T15:26:22;8.07;;;5.87;;
60819;SDS011;46641;48.904;9.126;2022-12-08T15:31:16;7.30;;;6.13;;
60819;SDS011;46641;48.904;9.126;2022-12-08T15:36:07;6.00;;;5.40;;
60819;SDS011;46641;48.904;9.126;2022-12-08T15:40:58;7.40;;;5.80;;
60819;SDS011;46641;48.904;9.126;2022-12-08T15:45:49;6.87;;;5.27;;
60819;SDS011;46641;48.904;9.126;2022-12-08T15:50:40;6.60;;;5.30;;
60819;SDS011;46641;48.904;9.126;2022-12-08T15:55:31;8.40;;;5.38;;
60819;SDS011;46641;48.904;9.126;2022-12-08T16:05:11;9.57;;;6.20;;
60819;SDS011;46641;48.904;9.126;2022-12-08T16:10:02;12.90;;;6.87;;
60819;SDS011;46641;48.904;9.126;2022-12-08T16:14:53;9.20;;;5.80;;
60819;SDS011;46641;48.904;9.126;2022-12-08T16:19:43;9.30;;;6.20;;
60819;SDS011;46641;48.904;9.126;2022-12-08T16:24:34;10.63;;;6.27;;
60819;SDS011;46641;48.904;9.126;2022-12-08T16:29:25;8.77;;;6.05;;
60819;SDS011;46641;48.904;9.126;2022-12-08T16:34:15;7.82;;;5.90;;
60819;SDS011;46641;48.904;9.126;2022-12-08T16:39:05;9.23;;;7.18;;
60819;SDS011;46641;48.904;9.126;2022-12-08T16:43:59;8.53;;;6.47;;
60819;SDS011;46641;48.904;9.126;2022-12-08T16:48:50;11.40;;;8.57;;
60819;SDS011;46641;48.904;9.126;2022-12-08T16:53:41;9.70;;;7.53;;
60819;SDS011;46641;48.904;9.126;2022-12-08T16:58:31;10.93;;;8.67;;
60819;SDS011;46641;48.904;9.126;2022-12-08T17:03:22;9.27;;;6.55;;
60819;SDS011;46641;48.904;9.126;2022-12-08T17:08:12;9.23;;;7.33;;
60819;SDS011;46641;48.904;9.126;2022-12-08T17:13:03;11.50;;;8.57;;
60819;SDS011;46641;48.904;9.126;2022-12-08T17:17:53;7.40;;;6.50;;
60819;SDS011;46641;48.904;9.126;2022-12-08T17:22:43;11.07;;;6.90;;
60819;SDS011;46641;48.904;9.126;2022-12-08T17:27:34;7.60;;;6.43;;
60819;SDS011;46641;48.904;9.126;2022-12-08T17:32:25;9.07;;;7.40;;
60819;SDS011;46641;48.904;9.126;2022-12-08T17:37:15;8.10;;;6.07;;
60819;SDS011;46641;48.904;9.126;2022-12-08T17:42:06;9.67;;;6.80;;
60819;SDS011;46641;48.904;9.126;2022-12-08T17:46:57;9.10;;;7.23;;
60819;SDS011;46641;48.904;9.126;2022-12-08T17:51:48;9.03;;;7.33;;
60819;SDS011;46641;48.904;9.126;2022-12-08T17:56:40;8.63;;;6.60;;
60819;SDS011;46641;48.904;9.126;2022-12-08T18:01:31;12.50;;;8.07;;
60819;SDS011;46641;48.904;9.126;2022-12-08T18:06:23;11.20;;;8.60;;
60819;SDS011;46641;48.904;9.126;2022-12-08T18:11:17;11.82;;;8.98;;
60819;SDS011;46641;48.904;9.126;2022-12-08T18:16:08;10.63;;;8.23;;
60819;SDS011;46641;48.904;9.126;2022-12-08T18:20:59;10.50;;;8.43;;
60819;SDS011;46641;48.904;9.126;2022-12-08T18:25:49;10.77;;;9.27;;
60819;SDS011;46641;48.904;9.126;2022-12-08T18:30:39;11.15;;;9.00;;
60819;SDS011;46641;48.904;9.126;2022-12-08T18:35:30;9.23;;;8.17;;
60819;SDS011;46641;48.904;9.126;2022-12-08T18:40:20;11.53;;;9.03;;
60819;SDS011;46641;48.904;9.126;2022-12-08T18:45:11;10.70;;;9.20;;
60819;SDS011;46641;48.904;9.126;2022-12-08T18:50:02;13.03;;;9.13;;
60819;SDS011;46641;48.904;9.126;2022-12-08T18:54:56;9.73;;;8.57;;
60819;SDS011;46641;48.904;9.126;2022-12-08T18:59:47;9.73;;;7.30;;
60819;SDS011;46641;48.904;9.126;2022-12-08T19:04:37;9.70;;;7.57;;
60819;SDS011;46641;48.904;9.126;2022-12-08T19:09:28;12.13;;;8.87;;
60819;SDS011;46641;48.904;9.126;2022-12-08T19:14:18;11.33;;;10.10;;
60819;SDS011;46641;48.904;9.126;2022-12-08T19:19:08;12.00;;;9.53;;
60819;SDS011;46641;48.904;9.126;2022-12-08T19:23:59;12.00;;;8.43;;
60819;SDS011;46641;48.904;9.126;2022-12-08T19:28:50;12.93;;;9.63;;
60819;SDS011;46641;48.904;9.126;2022-12-08T19:33:40;12.23;;;10.07;;
60819;SDS011;46641;48.904;9.126;2022-12-08T19:38:31;12.67;;;9.37;;
60819;SDS011;46641;48.904;9.126;2022-12-08T19:43:41;14.97;;;10.70;;
60819;SDS011;46641;48.904;9.126;2022-12-08T19:48:50;12.50;;;9.27;;
60819;SDS011;46641;48.904;9.126;2022-12-08T19:53:40;13.17;;;10.57;;
60819;SDS011;46641;48.904;9.126;2022-12-08T19:58:30;10.60;;;8.63;;
60819;SDS011;46641;48.904;9.126;2022-12-08T20:03:21;12.75;;;8.68;;
60819;SDS011;46641;48.904;9.126;2022-12-08T20:08:11;7.77;;;6.97;;
60819;SDS011;46641;48.904;9.126;2022-12-08T20:13:02;9.27;;;8.27;;
60819;SDS011;46641;48.904;9.126;2022-12-08T20:18:12;11.50;;;8.80;;
60819;SDS011;46641;48.904;9.126;2022-12-08T20:23:03;11.53;;;9.77;;
60819;SDS011;46641;48.904;9.126;2022-12-08T20:27:53;10.97;;;8.77;;
60819;SDS011;46641;48.904;9.126;2022-12-08T20:32:44;13.57;;;10.90;;
60819;SDS011;46641;48.904;9.126;2022-12-08T20:37:34;12.40;;;10.33;;
60819;SDS011;46641;48.904;9.126;2022-12-08T20:42:24;11.37;;;8.53;;
60819;SDS011;46641;48.904;9.126;2022-12-08T20:47:15;11.47;;;8.40;;
60819;SDS011;46641;48.904;9.126;2022-12-08T20:52:05;10.10;;;8.30;;
60819;SDS011;46641;48.904;9.126;2022-12-08T20:56:56;11.70;;;9.50;;
60819;SDS011;46641;48.904;9.126;2022-12-08T21:01:46;13.20;;;10.03;;
60819;SDS011;46641;48.904;9.126;2022-12-08T21:06:37;11.27;;;8.53;;
60819;SDS011;46641;48.904;9.126;2022-12-08T21:11:28;11.07;;;8.43;;
60819;SDS011;46641;48.904;9.126;2022-12-08T21:16:18;10.87;;;8.37;;
60819;SDS011;46641;48.904;9.126;2022-12-08T21:21:09;9.63;;;7.93;;
60819;SDS011;46641;48.904;9.126;2022-12-08T21:26:02;12.73;;;9.80;;
60819;SDS011;46641;48.904;9.126;2022-12-08T21:31:04;8.80;;;7.90;;
60819;SDS011;46641;48.904;9.126;2022-12-08T21:36:03;9.63;;;8.03;;
60819;SDS011;46641;48.904;9.126;2022-12-08T21:41:00;10.03;;;8.00;;
60819;SDS011;46641;48.904;9.126;2022-12-08T21:45:51;8.33;;;7.03;;
60819;SDS011;46641;48.904;9.126;2022-12-08T21:50:41;9.15;;;7.63;;
60819;SDS011;46641;48.904;9.126;2022-12-08T21:55:32;10.07;;;8.57;;
60819;SDS011;46641;48.904;9.126;2022-12-08T22:00:22;14.87;;;10.47;;
60819;SDS011;46641;48.904;9.126;2022-12-08T22:05:12;13.57;;;9.70;;
60819;SDS011;46641;48.904;9.126;2022-12-08T22:10:03;13.10;;;10.07;;
60819;SDS011;46641;48.904;9.126;2022-12-08T22:14:55;11.83;;;9.23;;
60819;SDS011;46641;48.904;9.126;2022-12-08T22:19:45;10.37;;;8.77;;
60819;SDS011;46641;48.904;9.126;2022-12-08T22:24:36;10.87;;;8.40;;
60819;SDS011;46641;48.904;9.126;2022-12-08T22:29:26;9.10;;;7.53;;
60819;SDS011;46641;48.904;9.126;2022-12-08T22:34:16;10.07;;;7.87;;
60819;SDS011;46641;48.904;9.126;2022-12-08T22:39:07;10.10;;;8.00;;
60819;SDS011;46641;48.904;9.126;2022-12-08T22:43:58;10.63;;;8.47;;
60819;SDS011;46641;48.904;9.126;2022-12-08T22:48:49;10.03;;;8.63;;
60819;SDS011;46641;48.904;9.126;2022-12-08T22:53:40;11.57;;;9.27;;
60819;SDS011;46641;48.904;9.126;2022-12-08T22:58:31;12.13;;;9.10;;
60819;SDS011;46641;48.904;9.126;2022-12-08T23:03:21;10.43;;;9.00;;
60819;SDS011;46641;48.904;9.126;2022-12-08T23:08:12;10.77;;;9.07;;
60819;SDS011;46641;48.904;9.126;2022-12-08T23:13:05;11.03;;;8.43;;
60819;SDS011;46641;48.904;9.126;2022-12-08T23:17:55;11.33;;;8.20;;
60819;SDS011;46641;48.904;9.126;2022-12-08T23:22:45;10.95;;;8.02;;
60819;SDS011;46641;48.904;9.126;2022-12-08T23:27:36;10.67;;;8.10;;
60819;SDS011;46641;48.904;9.126;2022-12-08T23:32:26;9.73;;;8.47;;
60819;SDS011;46641;48.904;9.126;2022-12-08T23:37:17;10.00;;;7.60;;
60819;SDS011;46641;48.904;9.126;2022-12-08T23:42:07;11.63;;;8.77;;
60819;SDS011;46641;48.904;9.126;2022-12-08T23:46:57;8.75;;;7.28;;
60819;SDS011;46641;48.904;9.126;2022-12-08T23:51:48;10.77;;;8.68;;
60819;SDS011;46641;48.904;9.126;2022-12-08T23:56:39;11.03;;;7.93;;
